Grant, Florida
Current Conditions -  °F | °C
As of 10:53 AM on Friday 24 Oct 2014 (Local Time) from KMLB Reporting Station
Scattered Clouds Scattered Clouds  
Wind Chill: 80°   Ceiling: Unl
Heat Index: 81°   Visibility: 10mi
Dew Point: 58°   Wind: 10mph
Humidity: 47%   Direction: 70°ENE
Pressure: 29.98"   Gusts: NA
Location:  27.93°N, 80.53°W
Report Text: KMLB 241453Z 07009KT 10SM SCT047 27/14 A2998 RMK AO2 SLP152 T02670144 51012
Loading
Personal Weather Stations






























Interactive Weather Map
Tropical Storm Tracking
New forecast layout! Learn more

10-Day Weather Forecast

Advertisements
Track Severe Weather on mobile